createdAt,value
2017-07-27T19:26:01.521Z,0.00
2017-07-27T19:28:27.418Z,0.00
2017-07-27T19:30:53.310Z,0.00
2017-07-27T19:44:47.125Z,96000.66
2017-07-27T19:47:12.999Z,96004.03
2017-07-27T19:49:38.907Z,96010.77
2017-07-27T19:52:04.987Z,96014.73
2017-07-27T19:54:30.870Z,96024.43
2017-07-27T19:56:56.815Z,96021.77
2017-07-27T19:59:22.724Z,96022.04
2017-07-27T20:01:48.606Z,96033.94
2017-07-27T20:04:14.438Z,96031.36
2017-07-27T20:06:40.495Z,96032.32
2017-07-27T20:09:06.540Z,96037.16
2017-07-27T20:11:32.416Z,96042.09
2017-07-27T20:13:58.259Z,96044.36
2017-07-27T20:16:24.077Z,96046.95
2017-07-27T20:18:49.904Z,96020.65
2017-07-27T20:21:15.753Z,96051.03
2017-07-27T20:23:41.780Z,96054.58
2017-07-27T20:26:07.624Z,96045.25
2017-07-27T20:28:33.561Z,96035.56
2017-07-27T20:30:59.455Z,96033.02
2017-07-27T20:33:25.294Z,96046.19
2017-07-27T20:35:51.319Z,96055.75
2017-07-27T20:38:17.291Z,96061.22
2017-07-27T20:40:43.152Z,96062.02
2017-07-27T20:43:09.092Z,96057.22
2017-07-27T20:45:35.005Z,96052.70
2017-07-27T20:48:00.943Z,96065.27
2017-07-27T20:50:26.765Z,96073.44
2017-07-27T20:52:52.646Z,96054.52
2017-07-27T20:55:18.731Z,96036.23
2017-07-27T20:57:44.596Z,96015.91
2017-07-27T21:00:10.590Z,95982.33
2017-07-27T21:02:36.457Z,96002.48
2017-07-27T21:05:02.376Z,96009.36
2017-07-27T21:07:28.332Z,96029.71
2017-07-27T21:09:54.170Z,96037.26
2017-07-27T21:12:20.061Z,96023.13
2017-07-27T21:14:45.979Z,96034.36
2017-07-27T21:17:11.794Z,96045.97
2017-07-27T21:19:37.672Z,96045.81
2017-07-27T21:22:03.617Z,96038.59
2017-07-27T21:24:29.502Z,96037.97
2017-07-27T21:26:55.402Z,96036.02
2017-07-27T21:29:21.275Z,96036.24
2017-07-27T21:31:47.168Z,96027.15
2017-07-27T21:34:12.992Z,96045.25
2017-07-27T21:36:39.032Z,96047.27
2017-07-27T21:39:05.020Z,96051.77
2017-07-27T21:41:30.886Z,96053.37
2017-07-27T21:43:56.785Z,96054.91
2017-07-27T21:46:23.012Z,96036.38
2017-07-27T21:48:48.873Z,96035.27
2017-07-27T21:51:14.715Z,96056.50
2017-07-27T21:53:40.593Z,96064.62
2017-07-27T21:56:06.512Z,96067.89
2017-07-27T21:58:32.399Z,96064.09
2017-07-27T22:00:58.429Z,96058.27
2017-07-27T22:03:24.384Z,96047.69
2017-07-27T22:05:50.263Z,96048.39
2017-07-27T22:08:16.096Z,96050.94
2017-07-27T22:10:42.022Z,96043.09
2017-07-27T22:13:07.879Z,96006.39
2017-07-27T22:15:33.779Z,96054.94
2017-07-27T22:17:59.750Z,96051.41
2017-07-27T22:20:25.583Z,96042.12
2017-07-27T22:22:51.402Z,96038.42
2017-07-27T22:25:17.237Z,96039.80
2017-07-27T22:27:43.183Z,96043.30
2017-07-27T22:30:09.059Z,96014.14
2017-07-27T22:32:34.916Z,96047.07
2017-07-27T22:35:00.833Z,96047.49
2017-07-27T22:37:26.892Z,96033.83
2017-07-27T22:39:52.717Z,96048.25
2017-07-27T22:42:18.538Z,96055.76
2017-07-27T22:44:44.378Z,96054.64
2017-07-27T22:47:10.212Z,96053.41
2017-07-27T22:49:36.037Z,96065.41
2017-07-27T22:52:01.983Z,96065.80
2017-07-27T22:54:27.836Z,96068.06
2017-07-27T22:56:53.699Z,96073.33
2017-07-27T22:59:19.608Z,96078.00
2017-07-27T23:01:45.462Z,96096.56
2017-07-27T23:04:11.302Z,96097.61
2017-07-27T23:06:37.153Z,96101.45
2017-07-27T23:09:03.120Z,96099.05
2017-07-27T23:11:31.767Z,96058.80
2017-07-27T23:13:57.611Z,96092.50
2017-07-27T23:16:23.515Z,96098.80
2017-07-27T23:18:49.318Z,96097.70
2017-07-27T23:21:15.137Z,96099.41
2017-07-27T23:23:40.991Z,96099.41
2017-07-27T23:26:06.907Z,96110.27
2017-07-27T23:28:32.733Z,96115.41
2017-07-27T23:30:58.622Z,96108.04
2017-07-27T23:33:24.439Z,96124.13
2017-07-27T23:35:50.282Z,96130.58
2017-07-27T23:38:16.346Z,96144.97
2017-07-27T23:40:42.208Z,96135.19
2017-07-27T23:43:08.035Z,96132.23
2017-07-27T23:45:33.934Z,96141.22
2017-07-27T23:47:59.877Z,96146.13
2017-07-27T23:50:25.788Z,96149.34
2017-07-27T23:52:51.646Z,96141.98
2017-07-27T23:55:17.539Z,96148.77
2017-07-27T23:57:43.369Z,96151.50
